Prospect, Louisiana
Current Conditions -  °F | °C
As of 7:43 AM on Sunday 23 Nov 2014 (Local Time) from KAEX Reporting Station
Light Rain Light Rain  
Wind Chill: 63°   Ceiling: 800
Heat Index: 63°   Visibility: 3mi
Dew Point: 62°   Wind: 15mph
Humidity: 97%   Direction: 170°S
Pressure: 29.48"   Gusts: 22mph
Location:  31.4897°N, 92.5035°W
Report Text: KAEX 231343Z 17013G19KT 3SM -RA BR BKN008 OVC014 17/17 A2948 RMK AO2 PK WND 15026/1322 WSHFT 1311 CIG 006V011 P0004 T01720167
Loading
Personal Weather Stations






























Interactive Weather Map New forecast layout! Learn more

10-Day Weather Forecast

Advertisements
Track Severe Weather on mobile